Tombarra — MPRD6 — position and weather

sailwx.info

Track history (hours):
 
Tides and Currents Weather Stations Pressure Air Temp Water Temp Dewpoint Dewpoint Depression Visibility Wind Speed Wind Dir Waves Ship Positions

Tombarra

Last reported at 2016-Aug-19 17:23 UTC. Time now 2016-Aug-27 08:14 UTC.
Position N 29°56' E 122°16'.

Length 199 m; draft 7.5 m.

Type: Cargo ship. MMSI: 232971000.

Date/timePositionNaut miles runAvg speedWind from/ knotsBaromVisibWave heightAir tempDewpointWater temp
2016-Aug-19 17:23N 29°56' E 122°16'0 0.2
2016-Aug-19 16:33N 29°56' E 122°16'1 0.1
2016-Aug-19 11:29N 29°56' E 122°15'0 0.0
2016-Aug-18 04:05N 29°56' E 122°15'0 0.0
2016-Aug-17 20:23N 29°56' E 122°15'0 0.0
2016-Aug-17 12:12N 29°56' E 122°15'0 0.0
2016-Aug-17 11:32N 29°56' E 122°15'0 0.0
2016-Aug-17 10:33N 29°56' E 122°15'0 0.0
2016-Aug-17 09:33N 29°56' E 122°15'0 0.0
2016-Aug-17 08:31N 29°56' E 122°15'0 0.0
2016-Aug-17 07:30N 29°56' E 122°15'0 0.0
2016-Aug-17 06:32N 29°56' E 122°15'1 0.9
2016-Aug-17 05:33N 29°56' E 122°14'6 6.0
2016-Aug-17 04:33N 29°50' E 122°13'1010.4
2016-Aug-17 03:33N 29°43' E 122°22'6 1.9
2016-Aug-17 00:33N 29°44' E 122°29'7 6.8
2016-Aug-16 23:33N 29°41' E 122°36'1110.2
2016-Aug-16 22:32N 29°43' E 122°48'1010.1
2016-Aug-16 21:31N 29°48' E 122°58'110 5.8
2016-Aug-16 02:28N 31°19' E 121°45'3 0.8
2016-Aug-15 22:22N 31°19' E 121°41'0 0.0
2016-Aug-15 20:16N 31°19' E 121°41'0 0.0
2016-Aug-15 18:04N 31°19' E 121°41'0 0.0
2016-Aug-15 12:28N 31°19' E 121°41'8 7.3
2016-Aug-15 11:23N 31°17' E 121°50'42011.4
2016-Aug-13 22:32N 38°16' E 122°01'1715.3
2016-Aug-13 21:27N 38°15' E 121°40'1415.3
2016-Aug-13 20:33N 38°20' E 121°24'1515.3
2016-Aug-13 19:33N 38°28' E 121°07'1414.2
2016-Aug-13 18:33N 38°34' E 120°51'1313.0
2016-Aug-13 17:34N 38°35' E 120°34'1616.3
2016-Aug-13 16:34N 38°38' E 120°14'3215.8
2016-Aug-13 14:30N 38°42' E 119°33'2015.3
2016-Aug-13 13:10N 38°45' E 119°07'3115.3
2016-Aug-13 11:09N 38°49' E 118°28'2112.9
2016-Aug-13 09:31N 38°56' E 118°02'1010.2
2016-Aug-13 08:33N 38°58' E 117°50'2 2.1
2016-Aug-13 07:22N 38°59' E 117°47'0 0.0
2016-Aug-13 06:28N 38°59' E 117°47'0 0.0
2016-Aug-13 05:28N 38°59' E 117°47'0 0.0
2016-Aug-13 04:28N 38°59' E 117°47'0 0.0
2016-Aug-13 03:28N 38°59' E 117°47'0 0.0
2016-Aug-13 02:22N 38°59' E 117°47'0 0.0
2016-Aug-13 01:28N 38°59' E 117°47'0 0.0
2016-Aug-13 00:28N 38°59' E 117°47'0 0.0
2016-Aug-12 23:22N 38°59' E 117°47'0 0.0
2016-Aug-12 22:28N 38°59' E 117°47'0 0.0
2016-Aug-12 21:28N 38°59' E 117°47'0 0.0
2016-Aug-12 20:22N 38°59' E 117°47'0 0.0
2016-Aug-12 19:28N 38°59' E 117°47'0 0.2
2016-Aug-12 18:33N 38°59' E 117°47'1110.8
2016-Aug-12 17:32N 38°56' E 118°01'10013.4
2016-Aug-12 10:05N 38°43' E 120°08'815.3
2016-Aug-12 09:33N 38°42' E 120°18'1616.5
2016-Aug-12 08:33N 38°39' E 120°38'1312.6
2016-Aug-12 07:33N 38°36' E 120°54'1312.8
2016-Aug-12 06:33N 38°31' E 121°09'1615.7
2016-Aug-12 05:33N 38°26' E 121°28'1616.0
2016-Aug-12 04:33N 38°21' E 121°48'1616.2
2016-Aug-12 03:33N 38°17' E 122°08'1818.1
2016-Aug-12 02:34N 38°12' E 122°30'2019.9
2016-Aug-12 01:32N 37°59' E 122°50'  
Track history (hours):
 
Tides and Currents Weather Stations Pressure Air Temp Water Temp Dewpoint Dewpoint Depression Visibility Wind Speed Wind Dir Waves Ship Positions

Tombarra

Last reported at 2016-Aug-19 17:23 UTC. Time now 2016-Aug-27 08:14 UTC.
Position N 29°56' E 122°16'.

Length 199 m; draft 7.5 m.

Type: Cargo ship. MMSI: 232971000.

Date/timePositionNaut miles runAvg speedWind from/ knotsBaromVisibWave heightAir tempDewpointWater temp
2016-Aug-19 17:23N 29°56' E 122°16'0 0.2
2016-Aug-19 16:33N 29°56' E 122°16'1 0.1
2016-Aug-19 11:29N 29°56' E 122°15'0 0.0
2016-Aug-18 04:05N 29°56' E 122°15'0 0.0
2016-Aug-17 20:23N 29°56' E 122°15'0 0.0
2016-Aug-17 12:12N 29°56' E 122°15'0 0.0
2016-Aug-17 11:32N 29°56' E 122°15'0 0.0
2016-Aug-17 10:33N 29°56' E 122°15'0 0.0
2016-Aug-17 09:33N 29°56' E 122°15'0 0.0
2016-Aug-17 08:31N 29°56' E 122°15'0 0.0
2016-Aug-17 07:30N 29°56' E 122°15'0 0.0
2016-Aug-17 06:32N 29°56' E 122°15'1 0.9
2016-Aug-17 05:33N 29°56' E 122°14'6 6.0
2016-Aug-17 04:33N 29°50' E 122°13'1010.4
2016-Aug-17 03:33N 29°43' E 122°22'6 1.9
2016-Aug-17 00:33N 29°44' E 122°29'7 6.8
2016-Aug-16 23:33N 29°41' E 122°36'1110.2
2016-Aug-16 22:32N 29°43' E 122°48'1010.1
2016-Aug-16 21:31N 29°48' E 122°58'110 5.8
2016-Aug-16 02:28N 31°19' E 121°45'3 0.8
2016-Aug-15 22:22N 31°19' E 121°41'0 0.0
2016-Aug-15 20:16N 31°19' E 121°41'0 0.0
2016-Aug-15 18:04N 31°19' E 121°41'0 0.0
2016-Aug-15 12:28N 31°19' E 121°41'8 7.3
2016-Aug-15 11:23N 31°17' E 121°50'42011.4
2016-Aug-13 22:32N 38°16' E 122°01'1715.3
2016-Aug-13 21:27N 38°15' E 121°40'1415.3
2016-Aug-13 20:33N 38°20' E 121°24'1515.3
2016-Aug-13 19:33N 38°28' E 121°07'1414.2
2016-Aug-13 18:33N 38°34' E 120°51'1313.0
2016-Aug-13 17:34N 38°35' E 120°34'1616.3
2016-Aug-13 16:34N 38°38' E 120°14'3215.8
2016-Aug-13 14:30N 38°42' E 119°33'2015.3
2016-Aug-13 13:10N 38°45' E 119°07'3115.3
2016-Aug-13 11:09N 38°49' E 118°28'2112.9
2016-Aug-13 09:31N 38°56' E 118°02'1010.2
2016-Aug-13 08:33N 38°58' E 117°50'2 2.1
2016-Aug-13 07:22N 38°59' E 117°47'0 0.0
2016-Aug-13 06:28N 38°59' E 117°47'0 0.0
2016-Aug-13 05:28N 38°59' E 117°47'0 0.0
2016-Aug-13 04:28N 38°59' E 117°47'0 0.0
2016-Aug-13 03:28N 38°59' E 117°47'0 0.0
2016-Aug-13 02:22N 38°59' E 117°47'0 0.0
2016-Aug-13 01:28N 38°59' E 117°47'0 0.0
2016-Aug-13 00:28N 38°59' E 117°47'0 0.0
2016-Aug-12 23:22N 38°59' E 117°47'0 0.0
2016-Aug-12 22:28N 38°59' E 117°47'0 0.0
2016-Aug-12 21:28N 38°59' E 117°47'0 0.0
2016-Aug-12 20:22N 38°59' E 117°47'0 0.0
2016-Aug-12 19:28N 38°59' E 117°47'0 0.2
2016-Aug-12 18:33N 38°59' E 117°47'1110.8
2016-Aug-12 17:32N 38°56' E 118°01'10013.4
2016-Aug-12 10:05N 38°43' E 120°08'815.3
2016-Aug-12 09:33N 38°42' E 120°18'1616.5
2016-Aug-12 08:33N 38°39' E 120°38'1312.6
2016-Aug-12 07:33N 38°36' E 120°54'1312.8
2016-Aug-12 06:33N 38°31' E 121°09'1615.7
2016-Aug-12 05:33N 38°26' E 121°28'1616.0
2016-Aug-12 04:33N 38°21' E 121°48'1616.2
2016-Aug-12 03:33N 38°17' E 122°08'1818.1
2016-Aug-12 02:34N 38°12' E 122°30'2019.9
2016-Aug-12 01:32N 37°59' E 122°50'  

Dump ship's entire track history